Time;durP1;ratioP1;P1;durP2;ratioP2;P2;SDS_P1;SDS_P2;PMS_P1;PMS_P2;Temp;Humidity;BMP_temperature;BMP_pressure;BME280_temperature;BME280_humidity;BME280_pressure;Samples;Min_cycle;Max_cycle;Signal;HPM_P1;HPM_P2
2022/04/11 04:10:21;;;;;;;;;;;;;;;6.84;63.43;96947.44;4206386;27;10407;-67
2022/04/11 04:12:23;;;;;;;;;;;;;;;6.86;63.32;96943.66;4198257;28;5777;-68
2022/04/11 04:14:24;;;;;;;;;;;;;;;6.90;62.87;96942.31;4210716;28;5705;-67
2022/04/11 04:16:26;;;;;;;;;;;;;;;6.96;62.72;96941.66;4211947;28;5870;-68
2022/04/11 04:18:28;;;;;;;;;;;;;;;6.99;62.63;96945.75;4201342;28;6110;-68
2022/04/11 04:20:30;;;;;;;;;;;;;;;6.80;63.54;96952.22;4212656;28;5681;-68
2022/04/11 04:22:31;;;;;;;;;;;;;;;6.88;63.39;96944.31;4214003;28;5718;-66
2022/04/11 04:24:34;;;;;;;;;;;;;;;6.93;63.29;96952.53;4204756;28;5722;-66
2022/04/11 04:26:35;;;;;;;;;;;;;;;6.95;63.82;96952.34;4198605;28;5853;-67
2022/04/11 04:28:37;;;;;;;;;;;;;;;6.95;63.39;96950.53;4213662;28;5165;-66
2022/04/11 04:30:40;;;;;;;;;;;;;;;6.98;63.55;96939.69;4209884;28;7731;-66
2022/04/11 04:32:42;;;;;;;;;;;;;;;6.98;64.00;96939.69;4213627;28;7724;-66
2022/04/11 04:34:43;;;;;;;;;;;;;;;6.96;64.20;96936.41;4205934;28;6210;-68
2022/04/11 04:36:45;;;;;;;;;;;;;;;7.03;63.62;96935.75;4202401;28;5717;-66
2022/04/11 04:38:46;;;;;;;;;;;;;;;6.94;64.42;96934.94;4199528;28;5802;-66
2022/04/11 04:40:48;;;;;;;;;;;;;;;6.83;65.31;96936.09;4187250;28;5822;-67
2022/04/11 04:42:51;;;;;;;;;;;;;;;6.94;64.53;96933.13;4181483;28;5814;-66
2022/04/11 04:44:53;;;;;;;;;;;;;;;6.95;64.88;96926.88;4213475;28;5685;-66
2022/04/11 04:46:55;;;;;;;;;;;;;;;6.99;64.49;96924.75;4213475;28;5708;-66
2022/04/11 04:48:57;;;;;;;;;;;;;;;6.91;64.85;96927.41;4203819;28;5937;-67
2022/04/11 04:50:59;;;;;;;;;;;;;;;6.90;65.06;96923.09;4185134;28;5728;-67
2022/04/11 04:53:01;;;;;;;;;;;;;;;6.82;65.04;96929.22;4203160;28;5860;-67
2022/04/11 04:55:03;;;;;;;;;;;;;;;6.96;64.22;96931.16;4195120;28;5715;-67
2022/04/11 04:57:05;;;;;;;;;;;;;;;6.94;64.88;96932.31;4191758;28;6701;-67
2022/04/11 04:59:07;;;;;;;;;;;;;;;6.88;64.92;96923.28;4193242;28;5833;-67
2022/04/11 05:01:08;;;;;;;;;;;;;;;6.80;64.98;96925.94;4193142;28;5738;-67
2022/04/11 05:03:10;;;;;;;;;;;;;;;6.91;64.43;96927.41;4223529;28;5109;-67
2022/04/11 05:05:14;;;;;;;;;;;;;;;6.88;64.53;96918.03;4192773;28;7780;-66
2022/04/11 05:07:15;;;;;;;;;;;;;;;6.91;64.20;96919.53;4192379;28;5853;-67
2022/04/11 05:09:18;;;;;;;;;;;;;;;6.87;64.45;96921.63;4184422;28;5661;-67
2022/04/11 05:11:20;;;;;;;;;;;;;;;6.93;64.31;96914.91;4192748;28;5855;-67
2022/04/11 05:13:22;;;;;;;;;;;;;;;6.86;64.66;96922.63;4198650;28;5748;-67
2022/04/11 05:15:24;;;;;;;;;;;;;;;6.77;64.80;96917.53;4201087;28;5704;-67
2022/04/11 05:17:27;;;;;;;;;;;;;;;6.92;64.47;96926.41;4200755;28;5784;-67
2022/04/11 05:19:29;;;;;;;;;;;;;;;6.91;64.29;96920.34;4202011;28;5682;-67
2022/04/11 05:21:31;;;;;;;;;;;;;;;6.93;64.35;96923.63;4193917;28;5642;-67
2022/04/11 05:23:37;;;;;;;;;;;;;;;7.01;63.76;96912.25;4184213;28;5733;-67
2022/04/11 05:25:38;;;;;;;;;;;;;;;7.03;64.39;96912.09;4199876;28;5868;-67
2022/04/11 05:27:40;;;;;;;;;;;;;;;7.04;64.17;96909.31;4183735;28;5769;-65
2022/04/11 05:29:41;;;;;;;;;;;;;;;7.14;63.97;96911.75;4195339;28;5642;-72
2022/04/11 05:31:43;;;;;;;;;;;;;;;7.12;63.68;96917.16;4199048;28;5642;-65
2022/04/11 05:33:45;;;;;;;;;;;;;;;7.14;64.13;96917.00;4201875;28;5697;-65
2022/04/11 05:35:47;;;;;;;;;;;;;;;7.13;64.28;96925.84;4199502;28;5651;-66
2022/04/11 05:37:49;;;;;;;;;;;;;;;7.13;64.30;96918.78;4201502;28;5810;-66
2022/04/11 05:39:50;;;;;;;;;;;;;;;7.06;64.83;96924.91;4201393;28;5634;-65
2022/04/11 05:41:52;;;;;;;;;;;;;;;7.15;64.38;96918.63;4176362;28;5728;-66
2022/04/11 05:43:53;;;;;;;;;;;;;;;7.18;64.32;96915.66;4188217;28;5935;-65
2022/04/11 05:45:55;;;;;;;;;;;;;;;7.23;64.50;96914.16;4201069;28;5725;-65
2022/04/11 05:47:57;;;;;;;;;;;;;;;7.23;64.63;96921.22;4201297;28;5623;-65
2022/04/11 05:49:59;;;;;;;;;;;;;;;7.25;64.40;96924.53;4179443;28;5809;-65
2022/04/11 05:52:01;;;;;;;;;;;;;;;7.27;64.48;96914.66;4184944;28;5638;-66
2022/04/11 05:54:02;;;;;;;;;;;;;;;7.31;64.67;96929.09;4184987;28;5650;-66
2022/04/11 05:56:04;;;;;;;;;;;;;;;7.33;64.76;96926.28;4191179;28;5651;-66
2022/04/11 05:58:06;;;;;;;;;;;;;;;7.25;65.21;96935.88;4201369;28;5709;-66
2022/04/11 06:00:08;;;;;;;;;;;;;;;7.28;65.25;96940.78;4188717;28;5704;-66
2022/04/11 06:02:10;;;;;;;;;;;;;;;7.26;65.58;96937.50;4201378;28;5548;-66
2022/04/11 06:04:12;;;;;;;;;;;;;;;7.23;65.58;96935.19;4200682;28;5704;-66
2022/04/11 06:06:15;;;;;;;;;;;;;;;7.21;65.38;96944.25;4190867;28;5790;-67
2022/04/11 06:08:17;;;;;;;;;;;;;;;7.18;65.27;96934.06;4201036;28;5559;-66
2022/04/11 06:10:19;;;;;;;;;;;;;;;7.15;65.25;96929.16;4201289;28;5610;-67
2022/04/11 06:12:22;;;;;;;;;;;;;;;7.15;65.36;96931.78;4201052;28;5618;-67
2022/04/11 06:14:23;;;;;;;;;;;;;;;6.99;66.80;96933.44;4200087;28;7261;-66
2022/04/11 06:16:25;;;;;;;;;;;;;;;6.80;67.11;96928.56;4184559;28;5682;-66
2022/04/11 06:18:27;;;;;;;;;;;;;;;6.77;66.91;96914.91;4184685;28;5661;-66
2022/04/11 06:20:28;;;;;;;;;;;;;;;7.01;67.07;96922.75;4184709;28;5767;-66
2022/04/11 06:22:30;;;;;;;;;;;;;;;7.51;65.12;96922.47;4183633;28;5674;-67
2022/04/11 06:24:32;;;;;;;;;;;;;;;9.18;60.82;96919.16;4191528;28;5623;-66
2022/04/11 06:26:33;;;;;;;;;;;;;;;9.08;60.15;96913.31;4183261;28;5707;-67
2022/04/11 06:28:35;;;;;;;;;;;;;;;8.12;62.29;96912.91;4198753;28;5650;-66
2022/04/11 06:30:36;;;;;;;;;;;;;;;7.77;63.34;96927.44;4200463;28;5701;-67
2022/04/11 06:32:38;;;;;;;;;;;;;;;7.61;64.13;96926.69;4199796;28;5693;-67
2022/04/11 06:34:40;;;;;;;;;;;;;;;7.44;64.24;96929.38;4200846;28;5713;-66
2022/04/11 06:36:42;;;;;;;;;;;;;;;7.40;64.71;96925.47;4199848;28;5639;-67
2022/04/11 06:38:43;;;;;;;;;;;;;;;7.41;64.44;96918.38;4200450;28;5761;-68
2022/04/11 06:40:45;;;;;;;;;;;;;;;7.24;64.87;96922.88;4200663;28;5688;-66
2022/04/11 06:42:47;;;;;;;;;;;;;;;6.98;65.67;96920.47;4200531;28;5651;-66
2022/04/11 06:44:48;;;;;;;;;;;;;;;7.20;65.38;96922.38;4198203;28;5773;-68
2022/04/11 06:46:50;;;;;;;;;;;;;;;7.30;64.93;96917.75;4200540;28;5873;-66
2022/04/11 06:48:52;;;;;;;;;;;;;;;7.24;65.10;96928.13;4200374;28;5663;-66
2022/04/11 06:50:54;;;;;;;;;;;;;;;7.27;64.92;96922.53;4200484;28;5639;-67
2022/04/11 06:52:55;;;;;;;;;;;;;;;6.98;65.96;96929.19;4182694;28;5864;-66
2022/04/11 06:54:57;;;;;;;;;;;;;;;6.91;66.53;96925.59;4200489;28;5631;-66
2022/04/11 06:57:00;;;;;;;;;;;;;;;7.02;66.11;96927.03;4200182;28;5702;-66
2022/04/11 06:59:01;;;;;;;;;;;;;;;7.16;65.82;96920.28;4200294;28;5627;-66
2022/04/11 07:01:03;;;;;;;;;;;;;;;7.27;65.64;96912.03;4199956;28;5634;-66
2022/04/11 07:03:05;;;;;;;;;;;;;;;7.21;65.78;96933.72;4199495;28;5712;-66
2022/04/11 07:05:08;;;;;;;;;;;;;;;7.34;65.21;96910.34;4198951;28;5639;-66
2022/04/11 07:07:09;;;;;;;;;;;;;;;7.45;65.41;96904.72;4199365;28;5803;-66
2022/04/11 07:09:11;;;;;;;;;;;;;;;7.47;65.82;96905.34;4200044;28;5571;-66
2022/04/11 07:11:13;;;;;;;;;;;;;;;7.44;65.66;96908.34;4182521;28;5753;-66
2022/04/11 07:13:15;;;;;;;;;;;;;;;7.52;65.45;96907.50;4200160;28;5733;-66
2022/04/11 07:15:17;;;;;;;;;;;;;;;7.34;65.36;96918.22;4173557;28;5732;-66
2022/04/11 07:17:18;;;;;;;;;;;;;;;7.45;64.98;96912.59;4183766;28;5647;-66
2022/04/11 07:19:21;;;;;;;;;;;;;;;7.48;65.48;96911.47;4183503;28;5650;-66
2022/04/11 07:21:22;;;;;;;;;;;;;;;7.39;66.25;96905.41;4189248;28;5700;-66
2022/04/11 07:23:24;;;;;;;;;;;;;;;7.40;66.22;96904.41;4191406;28;5659;-66
2022/04/11 07:25:26;;;;;;;;;;;;;;;7.39;65.95;96905.41;4189581;28;5937;-66
2022/04/11 07:27:28;;;;;;;;;;;;;;;7.50;65.57;96905.03;4198212;28;5889;-67
2022/04/11 07:29:30;;;;;;;;;;;;;;;7.54;66.02;96902.88;4197936;28;5623;-66
2022/04/11 07:31:32;;;;;;;;;;;;;;;7.57;65.23;96905.97;4197748;28;5709;-66
2022/04/11 07:33:34;;;;;;;;;;;;;;;7.44;66.80;96908.34;4199319;28;5698;-66
2022/04/11 07:35:36;;;;;;;;;;;;;;;7.49;66.27;96906.03;4229624;28;5696;-64
2022/04/11 07:37:38;;;;;;;;;;;;;;;7.51;66.63;96906.69;4198402;28;5627;-65
2022/04/11 07:39:40;;;;;;;;;;;;;;;7.51;66.32;96901.41;4215231;28;5628;-64
2022/04/11 07:41:42;;;;;;;;;;;;;;;7.43;66.24;96904.06;4199079;28;5705;-65
2022/04/11 07:43:44;;;;;;;;;;;;;;;7.44;66.99;96905.69;4197617;28;5720;-65
2022/04/11 07:45:46;;;;;;;;;;;;;;;7.53;66.31;96906.50;4199355;28;5772;-65
2022/04/11 07:47:48;;;;;;;;;;;;;;;7.36;66.41;96911.03;4190849;28;5803;-65
2022/04/11 07:49:50;;;;;;;;;;;;;;;7.07;67.77;96918.66;4199356;28;6596;-65
2022/04/11 07:51:53;;;;;;;;;;;;;;;6.96;68.38;96915.38;4199120;28;6542;-67
2022/04/11 07:53:55;;;;;;;;;;;;;;;7.23;67.15;96915.97;4193598;28;6392;-65
2022/04/11 07:55:57;;;;;;;;;;;;;;;7.48;66.22;96914.09;4190832;28;5659;-65
2022/04/11 07:57:59;;;;;;;;;;;;;;;7.55;65.95;96926.38;4197737;28;5706;-66
2022/04/11 08:00:03;;;;;;;;;;;;;;;7.27;67.38;96918.09;4199302;28;5085;-66
2022/04/11 08:02:06;;;;;;;;;;;;;;;7.35;66.95;96913.78;4198780;28;5743;-67
2022/04/11 08:04:08;;;;;;;;;;;;;;;7.44;66.08;96913.59;4196531;28;5765;-67
2022/04/11 08:06:10;;;;;;;;;;;;;;;7.28;66.38;96911.84;4198415;28;5746;-66
2022/04/11 08:08:12;;;;;;;;;;;;;;;7.41;65.59;96913.13;4199718;28;5819;-67
2022/04/11 08:10:15;;;;;;;;;;;;;;;7.48;65.17;96909.66;4198547;28;5689;-66
2022/04/11 08:12:20;;;;;;;;;;;;;;;7.27;65.73;96912.84;4199095;28;5070;-66
2022/04/11 08:14:21;;;;;;;;;;;;;;;7.52;65.40;96912.75;4188971;28;7729;-67
2022/04/11 08:16:23;;;;;;;;;;;;;;;7.65;64.48;96925.34;4198628;28;5715;-66
2022/04/11 08:18:25;;;;;;;;;;;;;;;7.51;63.47;96925.09;4198587;28;5689;-67
2022/04/11 08:20:27;;;;;;;;;;;;;;;7.55;63.59;96928.19;4199142;28;5713;-67
2022/04/11 08:22:29;;;;;;;;;;;;;;;7.34;65.26;96922.66;4198906;28;6513;-67
2022/04/11 08:24:30;;;;;;;;;;;;;;;7.39;64.99;96928.25;4198669;28;5673;-67
2022/04/11 08:26:32;;;;;;;;;;;;;;;7.43;64.93;96938.25;4183738;28;5631;-67
2022/04/11 08:28:34;;;;;;;;;;;;;;;7.35;64.60;96937.47;4197840;28;5705;-67
2022/04/11 08:30:36;;;;;;;;;;;;;;;7.57;65.03;96937.53;4197738;28;5078;-66
2022/04/11 08:32:38;;;;;;;;;;;;;;;7.73;63.78;96938.47;4198532;28;7695;-66
2022/04/11 08:34:41;;;;;;;;;;;;;;;7.76;62.24;96935.50;4196848;28;5849;-67
2022/04/11 08:36:44;;;;;;;;;;;;;;;7.84;60.91;96930.22;4197975;28;5676;-67
2022/04/11 08:38:46;;;;;;;;;;;;;;;7.90;61.29;96929.50;4198826;28;5803;-66
2022/04/11 08:40:52;;;;;;;;;;;;;;;7.77;61.65;96927.44;4196581;28;5777;-67
2022/04/11 08:42:55;;;;;;;;;;;;;;;7.84;59.78;96931.03;4198139;28;5693;-66
2022/04/11 08:44:59;;;;;;;;;;;;;;;7.87;57.91;96928.03;4198662;28;5768;-67
2022/04/11 08:47:04;;;;;;;;;;;;;;;7.89;59.19;96935.75;4201210;28;5663;-67
2022/04/11 08:49:06;;;;;;;;;;;;;;;7.91;58.12;96931.13;4202241;28;5717;-66
2022/04/11 08:51:09;;;;;;;;;;;;;;;8.01;58.80;96939.63;4202768;28;5638;-66
2022/04/11 08:53:11;;;;;;;;;;;;;;;8.04;58.57;96934.06;4197697;28;5714;-66
2022/04/11 08:55:12;;;;;;;;;;;;;;;8.09;58.05;96939.59;4195996;28;5723;-67
2022/04/11 08:57:14;;;;;;;;;;;;;;;8.05;58.05;96938.31;4199043;28;5646;-67
2022/04/11 08:59:16;;;;;;;;;;;;;;;8.12;59.00;96933.97;4181383;28;6555;-66
2022/04/11 09:01:17;;;;;;;;;;;;;;;8.14;58.20;96932.00;4185232;28;5094;-65
2022/04/11 09:03:22;;;;;;;;;;;;;;;8.22;58.19;96932.94;4217230;28;5789;-64
2022/04/11 09:05:25;;;;;;;;;;;;;;;8.22;57.84;96938.22;4200141;28;5705;-64
2022/04/11 09:07:27;;;;;;;;;;;;;;;8.31;57.60;96943.25;4201746;28;5739;-65
2022/04/11 09:09:39;;;;;;;;;;;;;;;8.35;57.59;96949.00;4201772;28;6305;-65
2022/04/11 09:11:41;;;;;;;;;;;;;;;8.32;56.34;96941.44;4202087;28;6426;-66
2022/04/11 09:13:50;;;;;;;;;;;;;;;8.25;57.72;96933.41;4201892;28;5710;-66
2022/04/11 09:15:54;;;;;;;;;;;;;;;8.30;57.99;96932.91;4201714;28;5780;-66
2022/04/11 09:17:58;;;;;;;;;;;;;;;8.36;56.97;96930.38;4197519;28;5106;-66
2022/04/11 09:20:12;;;;;;;;;;;;;;;8.37;57.11;96932.03;4201203;28;5800;-66
2022/04/11 09:22:35;;;;;;;;;;;;;;;8.46;57.67;96935.44;4200028;28;5765;-66
2022/04/11 09:24:37;;;;;;;;;;;;;;;8.53;56.82;96922.38;4191364;28;5602;-65
2022/04/11 09:26:40;;;;;;;;;;;;;;;8.55;55.71;96915.94;4201756;28;5637;-66
2022/04/11 09:28:42;;;;;;;;;;;;;;;8.35;55.63;96917.41;4200593;28;5802;-65
2022/04/11 09:30:44;;;;;;;;;;;;;;;8.54;56.10;96908.22;4193660;28;5680;-66
2022/04/11 09:32:56;;;;;;;;;;;;;;;8.60;54.27;96916.19;4192710;28;5767;-65
2022/04/11 09:34:58;;;;;;;;;;;;;;;8.63;55.90;96905.31;4199929;28;5643;-66
2022/04/11 09:37:02;;;;;;;;;;;;;;;8.70;52.85;96914.16;4201658;28;5735;-66
2022/04/11 09:39:04;;;;;;;;;;;;;;;8.79;54.73;96911.44;4200125;28;5805;-65
2022/04/11 09:41:06;;;;;;;;;;;;;;;8.61;52.96;96902.06;4200893;28;5725;-65
2022/04/11 09:43:10;;;;;;;;;;;;;;;8.71;54.21;96901.78;4200404;28;5643;-66
2022/04/11 09:45:16;;;;;;;;;;;;;;;8.73;53.39;96892.72;4185037;28;5673;-65
2022/04/11 09:47:25;;;;;;;;;;;;;;;8.80;54.13;96892.81;4196662;28;5706;-66
2022/04/11 09:49:29;;;;;;;;;;;;;;;8.77;52.48;96887.09;4199891;28;5709;-65
2022/04/11 09:51:31;;;;;;;;;;;;;;;8.84;54.32;96883.56;4197294;28;5865;-65
2022/04/11 09:53:34;;;;;;;;;;;;;;;8.92;53.30;96880.00;4182888;28;5646;-66
2022/04/11 09:55:36;;;;;;;;;;;;;;;8.96;53.13;96883.94;4198576;28;5811;-66
2022/04/11 09:57:39;;;;;;;;;;;;;;;8.97;53.07;96875.84;4198866;28;5634;-66
2022/04/11 09:59:43;;;;;;;;;;;;;;;8.66;52.97;96886.53;4195161;28;5714;-66
2022/04/11 10:02:06;;;;;;;;;;;;;;;8.81;53.29;96888.34;4194001;28;5791;-66
2022/04/11 10:04:09;;;;;;;;;;;;;;;8.97;54.25;96881.13;4189824;28;5803;-66
2022/04/11 10:06:12;;;;;;;;;;;;;;;9.05;53.52;96883.66;4198491;28;5824;-66
2022/04/11 10:08:14;;;;;;;;;;;;;;;8.92;53.50;96877.38;4196998;28;5920;-66
2022/04/11 10:10:17;;;;;;;;;;;;;;;8.88;52.55;96886.66;4180339;28;6123;-66
2022/04/11 10:12:20;;;;;;;;;;;;;;;8.84;53.43;96875.66;4197598;28;7144;-66
2022/04/11 10:14:27;;;;;;;;;;;;;;;8.99;52.55;96884.38;4196756;28;5734;-66
2022/04/11 10:16:29;;;;;;;;;;;;;;;9.12;53.81;96875.84;4197896;28;5848;-65
2022/04/11 10:18:31;;;;;;;;;;;;;;;9.22;51.79;96873.75;4197052;28;5950;-65
2022/04/11 10:20:38;;;;;;;;;;;;;;;9.25;52.63;96878.66;4197794;28;5775;-65
2022/04/11 10:23:11;;;;;;;;;;;;;;;9.36;53.13;96866.81;4197353;28;5766;-65
2022/04/11 10:25:15;;;;;;;;;;;;;;;9.26;52.64;96863.63;4187446;28;5642;-65
2022/04/11 10:27:25;;;;;;;;;;;;;;;9.39;53.27;96863.00;4203919;28;5725;-64
2022/04/11 10:29:30;;;;;;;;;;;;;;;9.45;53.36;96867.53;4194422;28;5647;-65
2022/04/11 10:31:36;;;;;;;;;;;;;;;9.32;53.54;96874.28;4194567;28;5758;-65
2022/04/11 10:33:49;;;;;;;;;;;;;;;9.38;53.38;96866.63;4196928;28;5729;-65
2022/04/11 10:35:53;;;;;;;;;;;;;;;9.43;53.24;96864.28;4182205;28;5793;-65
2022/04/11 10:37:57;;;;;;;;;;;;;;;9.36;53.17;96863.38;4197783;28;5804;-65
2022/04/11 10:40:28;;;;;;;;;;;;;;;9.49;52.93;96869.63;4195292;28;5835;-65
2022/04/11 10:42:30;;;;;;;;;;;;;;;9.66;53.54;96864.97;4188101;28;5892;-65
2022/04/11 10:44:37;;;;;;;;;;;;;;;9.70;53.72;96863.59;4195955;28;5722;-65
2022/04/11 10:47:15;;;;;;;;;;;;;;;9.63;51.83;96865.34;4196336;28;5875;-65
2022/04/11 10:49:16;;;;;;;;;;;;;;;9.54;52.97;96863.81;4138440;28;6616;-65
2022/04/11 10:51:18;;;;;;;;;;;;;;;9.51;51.72;96861.50;4134433;28;5980;-66
2022/04/11 10:53:24;;;;;;;;;;;;;;;9.56;52.96;96861.81;4128302;28;6468;-65
2022/04/11 10:55:26;;;;;;;;;;;;;;;9.51;52.15;96856.25;4116743;28;5809;-66
2022/04/11 10:57:39;;;;;;;;;;;;;;;9.56;52.39;96861.81;4100516;28;5797;-65
2022/04/11 11:00:07;;;;;;;;;;;;;;;9.63;53.06;96854.78;4132609;28;5874;-65
2022/04/11 11:02:11;;;;;;;;;;;;;;;9.65;52.58;96858.06;4116466;28;5844;-65
2022/04/11 11:04:18;;;;;;;;;;;;;;;9.72;53.01;96851.00;4116482;28;5805;-65
2022/04/11 11:06:22;;;;;;;;;;;;;;;9.75;53.04;96842.75;4126645;28;5891;-65
2022/04/11 11:08:25;;;;;;;;;;;;;;;9.93;53.05;96851.03;4140680;28;5935;-65
2022/04/11 11:10:37;;;;;;;;;;;;;;;10.05;53.05;96850.53;4148971;28;5700;-66
2022/04/11 11:12:39;;;;;;;;;;;;;;;10.12;52.55;96838.22;4135235;28;6004;-67
2022/04/11 11:14:42;;;;;;;;;;;;;;;9.99;52.68;96832.81;4137305;28;5849;-67
2022/04/11 11:16:58;;;;;;;;;;;;;;;9.99;52.80;96827.53;4119887;28;5795;-67
2022/04/11 11:19:00;;;;;;;;;;;;;;;10.20;52.65;96835.47;4132562;28;5838;-66
2022/04/11 11:21:02;;;;;;;;;;;;;;;10.06;51.80;96834.50;4132244;28;5826;-66
2022/04/11 11:23:36;;;;;;;;;;;;;;;10.07;52.84;96830.03;4149443;28;5631;-67
2022/04/11 11:25:38;;;;;;;;;;;;;;;10.28;52.71;96827.41;4155576;28;5631;-67
2022/04/11 11:27:40;;;;;;;;;;;;;;;10.38;52.51;96820.00;4199905;28;5655;-66
2022/04/11 11:29:43;;;;;;;;;;;;;;;10.50;52.51;96821.09;4200008;28;5689;-66
2022/04/11 11:31:47;;;;;;;;;;;;;;;10.61;52.54;96821.59;4197781;28;5631;-68
2022/04/11 11:33:54;;;;;;;;;;;;;;;10.69;51.95;96821.44;4182006;28;5743;-66
2022/04/11 11:35:56;;;;;;;;;;;;;;;10.62;51.58;96810.81;4182192;28;5956;-68
2022/04/11 11:38:05;;;;;;;;;;;;;;;10.39;52.29;96807.59;4197230;28;6860;-67
2022/04/11 11:40:09;;;;;;;;;;;;;;;10.60;52.50;96799.63;4197597;28;5779;-66
2022/04/11 11:42:18;;;;;;;;;;;;;;;10.75;52.24;96802.16;4188480;28;5756;-67
2022/04/11 11:44:20;;;;;;;;;;;;;;;10.79;52.66;96792.84;4193337;28;5838;-65
2022/04/11 11:46:22;;;;;;;;;;;;;;;10.81;52.73;96797.94;4197306;28;5900;-72
2022/04/11 11:48:29;;;;;;;;;;;;;;;10.82;52.27;96795.09;4199731;28;5971;-68
2022/04/11 11:50:31;;;;;;;;;;;;;;;10.94;51.98;96787.41;4198029;28;5833;-66
2022/04/11 11:52:33;;;;;;;;;;;;;;;10.93;51.80;96791.06;4189318;28;5642;-73
2022/04/11 11:54:40;;;;;;;;;;;;;;;10.90;52.61;96781.72;4193371;28;5646;-70
2022/04/11 11:56:46;;;;;;;;;;;;;;;10.93;52.45;96794.53;4198092;28;5694;-69
2022/04/11 11:58:49;;;;;;;;;;;;;;;10.87;52.51;96790.00;4197033;28;5852;-69
2022/04/11 12:00:51;;;;;;;;;;;;;;;10.77;51.91;96790.38;4194906;28;5767;-69
2022/04/11 12:05:32;;;;;;;;;;;;;;;10.92;52.48;96792.09;4196047;28;6434;-69
2022/04/11 12:07:34;;;;;;;;;;;;;;;10.96;52.87;96780.91;4188615;28;5653;-69
2022/04/11 12:09:38;;;;;;;;;;;;;;;11.05;52.56;96784.22;4194305;28;6758;-69
2022/04/11 12:11:39;;;;;;;;;;;;;;;11.09;52.45;96786.25;4181058;28;5181;-68
2022/04/11 12:13:41;;;;;;;;;;;;;;;11.11;52.21;96785.28;4178004;28;5845;-69
2022/04/11 12:15:43;;;;;;;;;;;;;;;11.04;52.83;96778.13;4171564;28;5846;-69
2022/04/11 12:17:47;;;;;;;;;;;;;;;11.18;53.06;96786.91;4177742;28;6349;-69
2022/04/11 12:19:49;;;;;;;;;;;;;;;11.18;52.08;96786.91;4181525;28;5734;-68
2022/04/11 12:21:50;;;;;;;;;;;;;;;11.16;51.84;96782.84;4178649;28;5669;-69
2022/04/11 12:23:52;;;;;;;;;;;;;;;11.07;53.03;96783.00;4184592;28;5957;-69
2022/04/11 12:25:56;;;;;;;;;;;;;;;11.24;52.98;96785.34;4184662;28;5730;-69
2022/04/11 12:28:22;;;;;;;;;;;;;;;11.33;53.58;96776.22;4178805;28;6396;-69
2022/04/11 12:30:24;;;;;;;;;;;;;;;11.50;53.54;96774.84;4184734;28;6365;-69
2022/04/11 12:32:26;;;;;;;;;;;;;;;11.61;53.16;96771.59;4180049;28;5881;-69
2022/04/11 12:34:37;;;;;;;;;;;;;;;11.55;52.49;96775.06;4185252;28;5805;-69
2022/04/11 12:36:58;;;;;;;;;;;;;;;11.54;51.01;96780.53;4173369;28;5739;-69
2022/04/11 12:39:14;;;;;;;;;;;;;;;11.61;52.61;96768.16;4182084;28;5112;-70
2022/04/11 12:41:29;;;;;;;;;;;;;;;11.74;52.13;96770.00;4184774;28;6457;-69
2022/04/11 12:43:31;;;;;;;;;;;;;;;11.70;52.01;96760.84;4172252;28;5810;-69
2022/04/11 12:45:34;;;;;;;;;;;;;;;11.80;52.51;96766.59;4176330;28;5922;-69
2022/04/11 12:48:05;;;;;;;;;;;;;;;11.99;52.08;96760.50;4180973;28;5760;-69
2022/04/11 12:50:06;;;;;;;;;;;;;;;12.07;50.18;96755.00;4184169;28;5805;-69
2022/04/11 12:52:09;;;;;;;;;;;;;;;11.84;50.24;96750.09;4180147;28;5741;-69
2022/04/11 12:54:13;;;;;;;;;;;;;;;12.00;50.33;96754.16;4184345;28;6585;-69
2022/04/11 12:56:15;;;;;;;;;;;;;;;12.08;49.09;96756.63;4182984;28;5748;-69
2022/04/11 12:58:21;;;;;;;;;;;;;;;12.11;49.33;96753.56;4180516;28;6091;-69
2022/04/11 13:00:24;;;;;;;;;;;;;;;12.05;48.81;96751.75;4173738;28;5920;-69
2022/04/11 13:02:26;;;;;;;;;;;;;;;12.13;49.85;96746.25;4168886;28;5814;-69
2022/04/11 13:04:28;;;;;;;;;;;;;;;12.18;48.55;96738.50;4181313;28;5738;-69
2022/04/11 13:06:30;;;;;;;;;;;;;;;12.25;48.74;96735.84;4171309;28;5831;-69
2022/04/11 13:08:32;;;;;;;;;;;;;;;12.29;47.99;96736.25;4182736;28;5911;-68
2022/04/11 13:10:34;;;;;;;;;;;;;;;12.16;47.98;96732.59;4197273;28;5646;-69
2022/04/11 13:12:36;;;;;;;;;;;;;;;12.22;47.96;96730.94;4198548;28;5779;-70
2022/04/11 13:14:40;;;;;;;;;;;;;;;12.26;47.99;96726.06;4201621;28;5721;-69
2022/04/11 13:19:02;;;;;;;;;;;;;;;12.30;47.98;96725.44;4195842;28;5622;-70
2022/04/11 13:21:04;;;;;;;;;;;;;;;12.37;47.98;96717.50;4197666;28;5892;-69
2022/04/11 13:23:07;;;;;;;;;;;;;;;12.43;48.01;96709.50;4197723;28;5784;-69
2022/04/11 13:25:10;;;;;;;;;;;;;;;12.54;48.30;96711.53;4198195;28;5813;-69
2022/04/11 13:27:11;;;;;;;;;;;;;;;12.65;47.79;96714.56;4201983;28;5631;-68
2022/04/11 13:29:13;;;;;;;;;;;;;;;12.70;47.18;96715.59;4184349;28;5766;-69
2022/04/11 13:31:15;;;;;;;;;;;;;;;12.76;48.25;96700.66;4196490;28;5632;-69
2022/04/11 13:33:18;;;;;;;;;;;;;;;12.81;47.83;96701.69;4197902;28;5631;-69
2022/04/11 13:35:20;;;;;;;;;;;;;;;12.73;48.08;96707.22;4199516;28;5709;-68
2022/04/11 13:37:22;;;;;;;;;;;;;;;12.80;48.67;96705.34;4201136;28;5659;-69
2022/04/11 13:39:32;;;;;;;;;;;;;;;12.78;48.70;96691.47;4200515;28;5685;-69
2022/04/11 13:41:34;;;;;;;;;;;;;;;12.80;48.36;96694.75;4199975;28;5670;-68
2022/04/11 13:43:36;;;;;;;;;;;;;;;12.82;48.49;96694.53;4201300;28;5811;-69
2022/04/11 13:45:43;;;;;;;;;;;;;;;12.90;49.16;96685.50;4198300;28;6899;-69
2022/04/11 13:47:45;;;;;;;;;;;;;;;12.90;47.96;96693.47;4213183;28;5786;-69
2022/04/11 13:49:47;;;;;;;;;;;;;;;12.85;48.57;96691.44;4213387;28;5789;-69
2022/04/11 13:51:49;;;;;;;;;;;;;;;12.80;49.64;96680.66;4199611;28;5634;-68
2022/04/11 13:53:57;;;;;;;;;;;;;;;12.83;49.36;96685.53;4194716;28;5647;-69
2022/04/11 13:55:59;;;;;;;;;;;;;;;12.68;49.68;96672.50;4192445;28;5804;-69
2022/04/11 13:58:01;;;;;;;;;;;;;;;12.68;49.85;96679.66;4194104;28;5710;-69
2022/04/11 14:00:03;;;;;;;;;;;;;;;12.78;48.81;96672.91;4201003;28;5608;-68
2022/04/11 14:02:12;;;;;;;;;;;;;;;12.78;48.26;96674.72;4198171;28;5638;-69
2022/04/11 14:04:14;;;;;;;;;;;;;;;12.79;48.37;96663.09;4197108;28;5538;-69
2022/04/11 14:06:16;;;;;;;;;;;;;;;12.83;47.51;96665.13;4199979;28;5734;-69
2022/04/11 14:08:22;;;;;;;;;;;;;;;12.78;45.92;96658.81;4200325;28;5639;-69
2022/04/11 14:10:23;;;;;;;;;;;;;;;12.83;46.24;96665.13;4186192;28;5742;-69
2022/04/11 14:12:25;;;;;;;;;;;;;;;12.84;46.47;96655.34;4168470;28;5868;-69
2022/04/11 14:14:27;;;;;;;;;;;;;;;12.91;46.61;96652.63;4197746;28;5638;-69
2022/04/11 14:16:29;;;;;;;;;;;;;;;12.94;45.83;96650.41;4193863;28;5655;-69
2022/04/11 14:18:31;;;;;;;;;;;;;;;13.00;46.37;96659.34;4184427;28;5650;-69
2022/04/11 14:20:33;;;;;;;;;;;;;;;12.99;45.03;96652.41;4196575;28;6321;-69
2022/04/11 14:22:35;;;;;;;;;;;;;;;12.83;45.60;96643.91;4199891;28;5615;-69
2022/04/11 14:24:37;;;;;;;;;;;;;;;12.91;46.54;96639.38;4200083;28;5725;-69
2022/04/11 14:26:38;;;;;;;;;;;;;;;12.90;47.77;96635.91;4178622;28;5710;-69
2022/04/11 14:28:42;;;;;;;;;;;;;;;12.95;48.28;96640.59;4199628;28;5654;-68
2022/04/11 14:30:43;;;;;;;;;;;;;;;12.89;48.81;96631.63;4199752;28;5726;-68
2022/04/11 14:32:45;;;;;;;;;;;;;;;12.93;49.17;96632.03;4199750;28;5710;-69
2022/04/11 14:34:47;;;;;;;;;;;;;;;12.91;49.16;96619.00;4182199;28;5821;-68
2022/04/11 14:36:48;;;;;;;;;;;;;;;12.91;49.56;96626.94;4199741;28;5825;-69
2022/04/11 14:38:53;;;;;;;;;;;;;;;12.94;49.49;96620.41;4199915;28;5797;-69
2022/04/11 14:40:55;;;;;;;;;;;;;;;12.91;48.16;96618.16;4195620;28;5638;-69
2022/04/11 14:42:57;;;;;;;;;;;;;;;12.96;48.64;96615.69;4187639;28;5728;-69
2022/04/11 14:44:59;;;;;;;;;;;;;;;12.98;48.58;96609.13;4185818;28;5639;-69
2022/04/11 14:47:02;;;;;;;;;;;;;;;13.06;48.83;96608.91;4195434;28;5635;-69
2022/04/11 14:49:03;;;;;;;;;;;;;;;13.09;48.27;96602.34;4194487;28;5735;-69
2022/04/11 14:51:19;;;;;;;;;;;;;;;13.17;48.01;96612.72;4193240;28;5824;-69
2022/04/11 14:53:22;;;;;;;;;;;;;;;13.19;47.84;96605.38;4195920;28;5804;-68
2022/04/11 14:55:23;;;;;;;;;;;;;;;13.16;49.42;96605.78;4197465;28;5832;-69
2022/04/11 14:57:26;;;;;;;;;;;;;;;13.14;48.45;96594.56;4195933;28;6538;-69
2022/04/11 14:59:28;;;;;;;;;;;;;;;13.19;47.55;96599.25;4188169;28;5744;-70
2022/04/11 15:01:30;;;;;;;;;;;;;;;13.21;48.12;96598.00;4196126;28;5804;-69
2022/04/11 15:03:32;;;;;;;;;;;;;;;13.31;49.01;96605.50;4197291;28;5753;-69
2022/04/11 15:05:34;;;;;;;;;;;;;;;13.28;48.60;96597.97;4197845;28;5690;-69
2022/04/11 15:07:36;;;;;;;;;;;;;;;13.23;47.57;96595.94;4197603;28;5737;-69
2022/04/11 15:09:38;;;;;;;;;;;;;;;13.20;48.07;96588.41;4179461;28;5932;-69
2022/04/11 15:11:39;;;;;;;;;;;;;;;13.18;46.49;96584.34;4198102;28;5761;-69